sensor_id;sensor_type;location;lat;lon;timestamp;pressure;altitude;pressure_sealevel;temperature
71960;BMP280;59832;51.146;14.024;2022-12-01T00:01:53;99297.38;;;-1.17
71960;BMP280;59832;51.146;14.024;2022-12-01T00:04:20;99279.22;;;-1.29
71960;BMP280;59832;51.146;14.024;2022-12-01T00:06:51;99283.22;;;-1.12
71960;BMP280;59832;51.146;14.024;2022-12-01T00:09:18;99288.84;;;-1.21
71960;BMP280;59832;51.146;14.024;2022-12-01T00:12:03;99289.53;;;-1.26
71960;BMP280;59832;51.146;14.024;2022-12-01T00:14:33;99284.00;;;-1.28
71960;BMP280;59832;51.146;14.024;2022-12-01T00:17:00;99278.78;;;-1.26
71960;BMP280;59832;51.146;14.024;2022-12-01T00:19:27;99270.25;;;-1.30
71960;BMP280;59832;51.146;14.024;2022-12-01T00:21:55;99278.19;;;-1.33
71960;BMP280;59832;51.146;14.024;2022-12-01T00:24:23;99270.75;;;-1.28
71960;BMP280;59832;51.146;14.024;2022-12-01T00:26:54;99275.47;;;-1.32
71960;BMP280;59832;51.146;14.024;2022-12-01T00:29:23;99289.09;;;-1.39
71960;BMP280;59832;51.146;14.024;2022-12-01T00:31:52;99280.81;;;-1.23
71960;BMP280;59832;51.146;14.024;2022-12-01T00:34:23;99276.72;;;-1.29
71960;BMP280;59832;51.146;14.024;2022-12-01T00:36:51;99276.81;;;-1.24
71960;BMP280;59832;51.146;14.024;2022-12-01T00:39:18;99271.59;;;-1.23
71960;BMP280;59832;51.146;14.024;2022-12-01T00:41:46;99272.81;;;-1.25
71960;BMP280;59832;51.146;14.024;2022-12-01T00:44:13;99276.59;;;-1.23
71960;BMP280;59832;51.146;14.024;2022-12-01T00:46:40;99270.69;;;-1.33
71960;BMP280;59832;51.146;14.024;2022-12-01T00:49:11;99276.06;;;-1.25
71960;BMP280;59832;51.146;14.024;2022-12-01T00:51:44;99277.78;;;-1.25
71960;BMP280;59832;51.146;14.024;2022-12-01T00:54:11;99276.44;;;-1.33
71960;BMP280;59832;51.146;14.024;2022-12-01T00:56:38;99286.81;;;-1.41
71960;BMP280;59832;51.146;14.024;2022-12-01T00:59:05;99282.03;;;-1.42
71960;BMP280;59832;51.146;14.024;2022-12-01T01:01:33;99286.84;;;-1.19
71960;BMP280;59832;51.146;14.024;2022-12-01T01:04:00;99285.50;;;-1.43
71960;BMP280;59832;51.146;14.024;2022-12-01T01:06:33;99281.34;;;-1.55
71960;BMP280;59832;51.146;14.024;2022-12-01T01:09:00;99279.22;;;-1.46
71960;BMP280;59832;51.146;14.024;2022-12-01T01:11:31;99280.91;;;-1.52
71960;BMP280;59832;51.146;14.024;2022-12-01T01:14:39;99274.53;;;-1.42
71960;BMP280;59832;51.146;14.024;2022-12-01T01:17:09;99279.47;;;-1.47
71960;BMP280;59832;51.146;14.024;2022-12-01T01:19:38;99283.03;;;-1.43
71960;BMP280;59832;51.146;14.024;2022-12-01T01:22:05;99273.84;;;-1.38
71960;BMP280;59832;51.146;14.024;2022-12-01T01:24:32;99275.84;;;-1.40
71960;BMP280;59832;51.146;14.024;2022-12-01T01:27:00;99283.84;;;-1.38
71960;BMP280;59832;51.146;14.024;2022-12-01T01:29:30;99300.66;;;-1.33
71960;BMP280;59832;51.146;14.024;2022-12-01T01:31:57;99290.28;;;-1.25
71960;BMP280;59832;51.146;14.024;2022-12-01T01:34:24;99295.13;;;-1.35
71960;BMP280;59832;51.146;14.024;2022-12-01T01:36:54;99290.56;;;-1.38
71960;BMP280;59832;51.146;14.024;2022-12-01T01:39:24;99286.09;;;-1.36
71960;BMP280;59832;51.146;14.024;2022-12-01T01:41:55;99286.06;;;-1.41
71960;BMP280;59832;51.146;14.024;2022-12-01T01:44:50;99283.59;;;-1.36
71960;BMP280;59832;51.146;14.024;2022-12-01T01:47:38;99281.09;;;-1.36
71960;BMP280;59832;51.146;14.024;2022-12-01T01:50:11;99285.88;;;-1.35
71960;BMP280;59832;51.146;14.024;2022-12-01T01:52:56;99291.03;;;-1.41
71960;BMP280;59832;51.146;14.024;2022-12-01T01:55:26;99280.69;;;-1.33
71960;BMP280;59832;51.146;14.024;2022-12-01T01:58:06;99280.06;;;-1.24
71960;BMP280;59832;51.146;14.024;2022-12-01T02:00:39;99273.72;;;-1.31
71960;BMP280;59832;51.146;14.024;2022-12-01T02:03:11;99277.22;;;-1.32
71960;BMP280;59832;51.146;14.024;2022-12-01T02:05:39;99273.19;;;-1.33
71960;BMP280;59832;51.146;14.024;2022-12-01T02:08:07;99280.19;;;-1.14
71960;BMP280;59832;51.146;14.024;2022-12-01T02:22:11;99266.66;;;-1.34
71960;BMP280;59832;51.146;14.024;2022-12-01T02:27:39;99274.22;;;-1.29
71960;BMP280;59832;51.146;14.024;2022-12-01T02:33:13;99281.44;;;-1.33
71960;BMP280;59832;51.146;14.024;2022-12-01T02:43:32;99286.09;;;-1.36
71960;BMP280;59832;51.146;14.024;2022-12-01T02:46:08;99292.69;;;-1.47
71960;BMP280;59832;51.146;14.024;2022-12-01T02:48:39;99294.53;;;-1.59
71960;BMP280;59832;51.146;14.024;2022-12-01T02:51:12;99294.59;;;-1.54
71960;BMP280;59832;51.146;14.024;2022-12-01T02:53:40;99298.44;;;-1.46
71960;BMP280;59832;51.146;14.024;2022-12-01T02:56:10;99296.97;;;-1.47
71960;BMP280;59832;51.146;14.024;2022-12-01T02:58:37;99301.81;;;-1.58
71960;BMP280;59832;51.146;14.024;2022-12-01T03:01:30;99295.50;;;-1.60
71960;BMP280;59832;51.146;14.024;2022-12-01T03:13:31;99287.63;;;-1.35
71960;BMP280;59832;51.146;14.024;2022-12-01T03:18:46;99287.09;;;-1.54
71960;BMP280;59832;51.146;14.024;2022-12-01T03:21:37;99291.72;;;-1.63
71960;BMP280;59832;51.146;14.024;2022-12-01T03:24:10;99296.88;;;-1.53
71960;BMP280;59832;51.146;14.024;2022-12-01T03:26:40;99287.72;;;-1.64
71960;BMP280;59832;51.146;14.024;2022-12-01T03:29:22;99290.69;;;-1.67
71960;BMP280;59832;51.146;14.024;2022-12-01T03:31:53;99288.84;;;-1.71
71960;BMP280;59832;51.146;14.024;2022-12-01T03:34:47;99289.69;;;-1.66
71960;BMP280;59832;51.146;14.024;2022-12-01T03:37:28;99285.00;;;-1.62
71960;BMP280;59832;51.146;14.024;2022-12-01T03:39:58;99297.47;;;-1.62
71960;BMP280;59832;51.146;14.024;2022-12-01T03:43:03;99290.59;;;-1.72
71960;BMP280;59832;51.146;14.024;2022-12-01T03:45:40;99296.66;;;-1.68
71960;BMP280;59832;51.146;14.024;2022-12-01T03:48:10;99286.72;;;-1.63
71960;BMP280;59832;51.146;14.024;2022-12-01T03:51:01;99287.59;;;-1.57
71960;BMP280;59832;51.146;14.024;2022-12-01T03:54:02;99287.72;;;-1.64
71960;BMP280;59832;51.146;14.024;2022-12-01T03:56:36;99286.66;;;-1.51
71960;BMP280;59832;51.146;14.024;2022-12-01T03:59:05;99287.59;;;-1.57
71960;BMP280;59832;51.146;14.024;2022-12-01T04:01:34;99281.13;;;-1.53
71960;BMP280;59832;51.146;14.024;2022-12-01T04:04:03;99287.81;;;-1.59
71960;BMP280;59832;51.146;14.024;2022-12-01T04:06:30;99284.47;;;-1.47
71960;BMP280;59832;51.146;14.024;2022-12-01T04:08:57;99283.78;;;-1.60
71960;BMP280;59832;51.146;14.024;2022-12-01T04:11:23;99280.75;;;-1.62
71960;BMP280;59832;51.146;14.024;2022-12-01T04:14:09;99286.59;;;-1.56
71960;BMP280;59832;51.146;14.024;2022-12-01T04:16:36;99285.75;;;-1.62
71960;BMP280;59832;51.146;14.024;2022-12-01T04:19:03;99289.53;;;-1.59
71960;BMP280;59832;51.146;14.024;2022-12-01T04:21:32;99295.19;;;-1.64
71960;BMP280;59832;51.146;14.024;2022-12-01T04:23:59;99304.75;;;-1.61
71960;BMP280;59832;51.146;14.024;2022-12-01T04:26:30;99309.94;;;-1.45
71960;BMP280;59832;51.146;14.024;2022-12-01T04:29:06;99307.47;;;-1.62
71960;BMP280;59832;51.146;14.024;2022-12-01T04:31:34;99308.22;;;-1.45
71960;BMP280;59832;51.146;14.024;2022-12-01T04:34:01;99308.44;;;-1.63
71960;BMP280;59832;51.146;14.024;2022-12-01T04:36:30;99302.69;;;-1.64
71960;BMP280;59832;51.146;14.024;2022-12-01T04:38:57;99305.34;;;-1.54
71960;BMP280;59832;51.146;14.024;2022-12-01T04:41:24;99316.41;;;-1.66
71960;BMP280;59832;51.146;14.024;2022-12-01T04:43:53;99304.91;;;-1.67
71960;BMP280;59832;51.146;14.024;2022-12-01T04:46:21;99300.81;;;-1.57
71960;BMP280;59832;51.146;14.024;2022-12-01T04:48:48;99299.53;;;-1.59
71960;BMP280;59832;51.146;14.024;2022-12-01T04:51:15;99298.44;;;-1.63
71960;BMP280;59832;51.146;14.024;2022-12-01T04:53:42;99299.44;;;-1.64
71960;BMP280;59832;51.146;14.024;2022-12-01T04:56:09;99307.56;;;-1.57
71960;BMP280;59832;51.146;14.024;2022-12-01T04:58:36;99308.38;;;-1.52
71960;BMP280;59832;51.146;14.024;2022-12-01T05:01:08;99302.56;;;-1.57
71960;BMP280;59832;51.146;14.024;2022-12-01T05:03:37;99306.84;;;-1.53
71960;BMP280;59832;51.146;14.024;2022-12-01T05:06:07;99311.69;;;-1.63
71960;BMP280;59832;51.146;14.024;2022-12-01T05:08:39;99311.41;;;-1.66
71960;BMP280;59832;51.146;14.024;2022-12-01T05:11:07;99314.13;;;-1.68
71960;BMP280;59832;51.146;14.024;2022-12-01T05:13:39;99305.44;;;-1.65
71960;BMP280;59832;51.146;14.024;2022-12-01T05:16:09;99303.97;;;-1.61
71960;BMP280;59832;51.146;14.024;2022-12-01T05:18:37;99298.44;;;-1.63
71960;BMP280;59832;51.146;14.024;2022-12-01T05:21:06;99302.03;;;-1.59
71960;BMP280;59832;51.146;14.024;2022-12-01T05:23:37;99304.06;;;-1.56
71960;BMP280;59832;51.146;14.024;2022-12-01T05:26:06;99304.53;;;-1.59
71960;BMP280;59832;51.146;14.024;2022-12-01T05:28:36;99303.75;;;-1.43
71960;BMP280;59832;51.146;14.024;2022-12-01T05:31:04;99310.44;;;-1.48
71960;BMP280;59832;51.146;14.024;2022-12-01T05:33:31;99305.72;;;-1.62
71960;BMP280;59832;51.146;14.024;2022-12-01T05:35:58;99308.97;;;-1.44
71960;BMP280;59832;51.146;14.024;2022-12-01T05:38:24;99312.84;;;-1.54
71960;BMP280;59832;51.146;14.024;2022-12-01T05:40:53;99310.81;;;-1.73
71960;BMP280;59832;51.146;14.024;2022-12-01T05:43:21;99313.31;;;-1.73
71960;BMP280;59832;51.146;14.024;2022-12-01T05:45:55;99316.84;;;-1.69
71960;BMP280;59832;51.146;14.024;2022-12-01T05:48:23;99317.16;;;-1.66
71960;BMP280;59832;51.146;14.024;2022-12-01T05:51:00;99319.28;;;-1.58
71960;BMP280;59832;51.146;14.024;2022-12-01T05:54:05;99320.47;;;-1.60
71960;BMP280;59832;51.146;14.024;2022-12-01T05:57:11;99320.78;;;-1.40
71960;BMP280;59832;51.146;14.024;2022-12-01T06:02:40;99321.25;;;-1.60
71960;BMP280;59832;51.146;14.024;2022-12-01T06:05:07;99322.38;;;-1.67
71960;BMP280;59832;51.146;14.024;2022-12-01T06:07:34;99321.13;;;-1.81
71960;BMP280;59832;51.146;14.024;2022-12-01T06:10:02;99325.31;;;-1.70
71960;BMP280;59832;51.146;14.024;2022-12-01T06:12:28;99324.94;;;-1.62
71960;BMP280;59832;51.146;14.024;2022-12-01T06:14:55;99332.91;;;-1.65
71960;BMP280;59832;51.146;14.024;2022-12-01T06:17:21;99330.41;;;-1.65
71960;BMP280;59832;51.146;14.024;2022-12-01T06:19:48;99332.03;;;-1.71
71960;BMP280;59832;51.146;14.024;2022-12-01T06:22:15;99340.84;;;-1.52
71960;BMP280;59832;51.146;14.024;2022-12-01T06:24:41;99337.81;;;-1.54
71960;BMP280;59832;51.146;14.024;2022-12-01T06:27:08;99340.00;;;-1.57
71960;BMP280;59832;51.146;14.024;2022-12-01T06:29:34;99341.06;;;-1.70
71960;BMP280;59832;51.146;14.024;2022-12-01T06:32:07;99336.16;;;-1.65
71960;BMP280;59832;51.146;14.024;2022-12-01T06:34:33;99345.59;;;-1.67
71960;BMP280;59832;51.146;14.024;2022-12-01T06:37:00;99345.22;;;-1.59
71960;BMP280;59832;51.146;14.024;2022-12-01T06:39:26;99348.69;;;-1.60
71960;BMP280;59832;51.146;14.024;2022-12-01T06:41:53;99344.16;;;-1.63
71960;BMP280;59832;51.146;14.024;2022-12-01T06:44:19;99348.97;;;-1.73
71960;BMP280;59832;51.146;14.024;2022-12-01T06:46:46;99340.84;;;-1.68
71960;BMP280;59832;51.146;14.024;2022-12-01T06:49:12;99342.56;;;-1.69
71960;BMP280;59832;51.146;14.024;2022-12-01T06:51:39;99337.72;;;-1.59
71960;BMP280;59832;51.146;14.024;2022-12-01T06:54:05;99339.69;;;-1.61
71960;BMP280;59832;51.146;14.024;2022-12-01T06:56:32;99341.00;;;-1.58
71960;BMP280;59832;51.146;14.024;2022-12-01T06:58:59;99342.78;;;-1.70
71960;BMP280;59832;51.146;14.024;2022-12-01T07:01:26;99350.22;;;-1.59
71960;BMP280;59832;51.146;14.024;2022-12-01T07:03:53;99349.03;;;-1.56
71960;BMP280;59832;51.146;14.024;2022-12-01T07:06:20;99354.78;;;-1.39
71960;BMP280;59832;51.146;14.024;2022-12-01T07:08:47;99358.75;;;-1.55
71960;BMP280;59832;51.146;14.024;2022-12-01T07:11:14;99353.25;;;-1.57
71960;BMP280;59832;51.146;14.024;2022-12-01T07:13:42;99361.84;;;-1.64
71960;BMP280;59832;51.146;14.024;2022-12-01T07:16:12;99360.72;;;-1.73
71960;BMP280;59832;51.146;14.024;2022-12-01T07:18:39;99367.84;;;-1.65
71960;BMP280;59832;51.146;14.024;2022-12-01T07:21:10;99372.97;;;-1.72
71960;BMP280;59832;51.146;14.024;2022-12-01T07:23:38;99368.06;;;-1.67
71960;BMP280;59832;51.146;14.024;2022-12-01T07:26:08;99371.94;;;-1.59
71960;BMP280;59832;51.146;14.024;2022-12-01T07:28:35;99373.22;;;-1.57
71960;BMP280;59832;51.146;14.024;2022-12-01T07:33:36;99375.78;;;-1.52
71960;BMP280;59832;51.146;14.024;2022-12-01T07:36:03;99377.47;;;-1.57
71960;BMP280;59832;51.146;14.024;2022-12-01T07:38:30;99375.03;;;-1.52
71960;BMP280;59832;51.146;14.024;2022-12-01T07:41:04;99376.78;;;-1.53
71960;BMP280;59832;51.146;14.024;2022-12-01T07:43:32;99374.66;;;-1.61
71960;BMP280;59832;51.146;14.024;2022-12-01T07:46:19;99376.94;;;-1.42
71960;BMP280;59832;51.146;14.024;2022-12-01T07:48:50;99373.47;;;-1.41
71960;BMP280;59832;51.146;14.024;2022-12-01T07:51:16;99377.53;;;-1.52
71960;BMP280;59832;51.146;14.024;2022-12-01T07:53:44;99373.22;;;-1.57
71960;BMP280;59832;51.146;14.024;2022-12-01T07:56:12;99376.19;;;-1.43
71960;BMP280;59832;51.146;14.024;2022-12-01T07:58:39;99380.94;;;-1.41
71960;BMP280;59832;51.146;14.024;2022-12-01T08:01:11;99384.59;;;-1.49
71960;BMP280;59832;51.146;14.024;2022-12-01T08:03:38;99382.75;;;-1.54
71960;BMP280;59832;51.146;14.024;2022-12-01T08:06:06;99384.97;;;-1.57
71960;BMP280;59832;51.146;14.024;2022-12-01T08:08:34;99381.22;;;-1.55
71960;BMP280;59832;51.146;14.024;2022-12-01T08:11:06;99372.13;;;-1.32
71960;BMP280;59832;51.146;14.024;2022-12-01T08:13:33;99374.59;;;-1.49
71960;BMP280;59832;51.146;14.024;2022-12-01T08:16:03;99384.22;;;-1.41
71960;BMP280;59832;51.146;14.024;2022-12-01T08:18:33;99386.34;;;-1.33
71960;BMP280;59832;51.146;14.024;2022-12-01T08:21:00;99380.78;;;-1.52
71960;BMP280;59832;51.146;14.024;2022-12-01T08:23:26;99386.59;;;-1.46
71960;BMP280;59832;51.146;14.024;2022-12-01T08:25:53;99381.69;;;-1.58
71960;BMP280;59832;51.146;14.024;2022-12-01T08:28:20;99388.59;;;-1.48
71960;BMP280;59832;51.146;14.024;2022-12-01T08:30:46;99393.97;;;-1.39
71960;BMP280;59832;51.146;14.024;2022-12-01T08:33:13;99383.34;;;-1.46
71960;BMP280;59832;51.146;14.024;2022-12-01T08:35:40;99386.88;;;-1.31
71960;BMP280;59832;51.146;14.024;2022-12-01T08:38:07;99389.63;;;-1.32
71960;BMP280;59832;51.146;14.024;2022-12-01T08:40:34;99384.63;;;-1.32
71960;BMP280;59832;51.146;14.024;2022-12-01T08:43:00;99383.97;;;-1.39
71960;BMP280;59832;51.146;14.024;2022-12-01T08:45:27;99386.22;;;-1.38
71960;BMP280;59832;51.146;14.024;2022-12-01T08:47:53;99388.09;;;-1.33
71960;BMP280;59832;51.146;14.024;2022-12-01T08:50:25;99396.09;;;-1.48
71960;BMP280;59832;51.146;14.024;2022-12-01T08:52:52;99403.50;;;-1.36
71960;BMP280;59832;51.146;14.024;2022-12-01T08:55:20;99395.31;;;-1.48
71960;BMP280;59832;51.146;14.024;2022-12-01T08:57:47;99401.38;;;-1.44
71960;BMP280;59832;51.146;14.024;2022-12-01T09:00:14;99399.94;;;-1.40
71960;BMP280;59832;51.146;14.024;2022-12-01T09:02:41;99393.69;;;-1.26
71960;BMP280;59832;51.146;14.024;2022-12-01T09:05:08;99395.78;;;-1.35
71960;BMP280;59832;51.146;14.024;2022-12-01T09:07:34;99405.19;;;-1.25
71960;BMP280;59832;51.146;14.024;2022-12-01T09:10:01;99407.69;;;-1.25
71960;BMP280;59832;51.146;14.024;2022-12-01T09:12:28;99403.28;;;-1.35
71960;BMP280;59832;51.146;14.024;2022-12-01T09:14:54;99395.03;;;-1.35
71960;BMP280;59832;51.146;14.024;2022-12-01T09:17:21;99396.56;;;-1.18
71960;BMP280;59832;51.146;14.024;2022-12-01T09:19:48;99395.38;;;-1.32
71960;BMP280;59832;51.146;14.024;2022-12-01T09:22:15;99395.91;;;-1.30
71960;BMP280;59832;51.146;14.024;2022-12-01T09:24:42;99401.41;;;-1.28
71960;BMP280;59832;51.146;14.024;2022-12-01T09:27:08;99396.97;;;-1.37
71960;BMP280;59832;51.146;14.024;2022-12-01T09:29:35;99397.97;;;-1.38
71960;BMP280;59832;51.146;14.024;2022-12-01T09:32:02;99401.75;;;-1.36
71960;BMP280;59832;51.146;14.024;2022-12-01T09:34:28;99393.09;;;-1.33
71960;BMP280;59832;51.146;14.024;2022-12-01T09:36:55;99402.44;;;-1.40
71960;BMP280;59832;51.146;14.024;2022-12-01T09:39:23;99400.38;;;-1.43
71960;BMP280;59832;51.146;14.024;2022-12-01T09:41:55;99395.97;;;-1.25
71960;BMP280;59832;51.146;14.024;2022-12-01T09:47:21;99390.03;;;-1.35
71960;BMP280;59832;51.146;14.024;2022-12-01T09:52:44;99383.44;;;-1.41
71960;BMP280;59832;51.146;14.024;2022-12-01T09:55:14;99393.66;;;-1.43
71960;BMP280;59832;51.146;14.024;2022-12-01T09:57:42;99379.81;;;-1.34
71960;BMP280;59832;51.146;14.024;2022-12-01T10:00:16;99388.41;;;-1.30
71960;BMP280;59832;51.146;14.024;2022-12-01T10:05:44;99383.50;;;-1.36
71960;BMP280;59832;51.146;14.024;2022-12-01T10:08:35;99385.22;;;-1.25
71960;BMP280;59832;51.146;14.024;2022-12-01T10:11:35;99383.63;;;-1.31
71960;BMP280;59832;51.146;14.024;2022-12-01T10:14:03;99377.19;;;-1.10
71960;BMP280;59832;51.146;14.024;2022-12-01T10:16:41;99379.06;;;-1.18
71960;BMP280;59832;51.146;14.024;2022-12-01T10:19:14;99379.47;;;-1.26
71960;BMP280;59832;51.146;14.024;2022-12-01T10:30:05;99372.88;;;-1.32
71960;BMP280;59832;51.146;14.024;2022-12-01T10:35:42;99367.41;;;-1.29
71960;BMP280;59832;51.146;14.024;2022-12-01T10:40:48;99365.94;;;-1.30
71960;BMP280;59832;51.146;14.024;2022-12-01T10:43:16;99365.16;;;-1.30
71960;BMP280;59832;51.146;14.024;2022-12-01T10:45:43;99359.53;;;-1.21
71960;BMP280;59832;51.146;14.024;2022-12-01T10:48:21;99362.28;;;-1.22
71960;BMP280;59832;51.146;14.024;2022-12-01T10:50:53;99362.78;;;-1.03
71960;BMP280;59832;51.146;14.024;2022-12-01T10:55:58;99362.25;;;-1.05
71960;BMP280;59832;51.146;14.024;2022-12-01T10:58:25;99358.94;;;-1.11
71960;BMP280;59832;51.146;14.024;2022-12-01T11:00:58;99359.53;;;-1.04
71960;BMP280;59832;51.146;14.024;2022-12-01T11:03:30;99357.66;;;-1.14
71960;BMP280;59832;51.146;14.024;2022-12-01T11:05:59;99353.66;;;-1.15
71960;BMP280;59832;51.146;14.024;2022-12-01T11:08:30;99350.91;;;-1.13
71960;BMP280;59832;51.146;14.024;2022-12-01T11:10:58;99360.81;;;-1.01
71960;BMP280;59832;51.146;14.024;2022-12-01T11:13:27;99364.09;;;-1.18
71960;BMP280;59832;51.146;14.024;2022-12-01T11:15:59;99359.78;;;-1.22
71960;BMP280;59832;51.146;14.024;2022-12-01T11:21:24;99362.41;;;-1.29
71960;BMP280;59832;51.146;14.024;2022-12-01T11:23:53;99358.31;;;-1.35
71960;BMP280;59832;51.146;14.024;2022-12-01T11:28:54;99351.81;;;-1.19
71960;BMP280;59832;51.146;14.024;2022-12-01T11:31:33;99353.09;;;-1.17
71960;BMP280;59832;51.146;14.024;2022-12-01T11:34:01;99350.38;;;-1.15
71960;BMP280;59832;51.146;14.024;2022-12-01T11:36:36;99342.34;;;-1.34
71960;BMP280;59832;51.146;14.024;2022-12-01T11:39:03;99340.47;;;-1.27
71960;BMP280;59832;51.146;14.024;2022-12-01T11:41:36;99342.59;;;-1.19
71960;BMP280;59832;51.146;14.024;2022-12-01T11:44:15;99347.94;;;-1.10
71960;BMP280;59832;51.146;14.024;2022-12-01T11:47:15;99333.94;;;-1.11
71960;BMP280;59832;51.146;14.024;2022-12-01T11:49:59;99327.09;;;-0.99
71960;BMP280;59832;51.146;14.024;2022-12-01T11:52:34;99335.44;;;-1.10
71960;BMP280;59832;51.146;14.024;2022-12-01T11:55:22;99323.63;;;-0.98
71960;BMP280;59832;51.146;14.024;2022-12-01T11:57:52;99326.53;;;-1.06
71960;BMP280;59832;51.146;14.024;2022-12-01T12:00:26;99334.44;;;-0.92
71960;BMP280;59832;51.146;14.024;2022-12-01T12:03:06;99325.59;;;-1.00
71960;BMP280;59832;51.146;14.024;2022-12-01T12:11:49;99323.00;;;-0.88
71960;BMP280;59832;51.146;14.024;2022-12-01T12:14:30;99331.25;;;-0.88
71960;BMP280;59832;51.146;14.024;2022-12-01T12:26:12;99312.66;;;-0.97
71960;BMP280;59832;51.146;14.024;2022-12-01T12:37:21;99307.88;;;-0.98
71960;BMP280;59832;51.146;14.024;2022-12-01T12:43:20;99313.94;;;-0.72
71960;BMP280;59832;51.146;14.024;2022-12-01T12:46:03;99311.88;;;-0.76
71960;BMP280;59832;51.146;14.024;2022-12-01T12:51:51;99310.66;;;-0.95
71960;BMP280;59832;51.146;14.024;2022-12-01T12:56:49;99310.78;;;-0.85
71960;BMP280;59832;51.146;14.024;2022-12-01T12:59:33;99313.63;;;-0.98
71960;BMP280;59832;51.146;14.024;2022-12-01T13:02:16;99310.66;;;-0.95
71960;BMP280;59832;51.146;14.024;2022-12-01T13:04:55;99315.31;;;-0.82
71960;BMP280;59832;51.146;14.024;2022-12-01T13:10:32;99316.34;;;-0.78
71960;BMP280;59832;51.146;14.024;2022-12-01T13:15:37;99310.66;;;-0.95
71960;BMP280;59832;51.146;14.024;2022-12-01T13:20:45;99311.41;;;-0.94
71960;BMP280;59832;51.146;14.024;2022-12-01T13:23:13;99309.44;;;-0.92
71960;BMP280;59832;51.146;14.024;2022-12-01T13:25:41;99309.56;;;-0.82
71960;BMP280;59832;51.146;14.024;2022-12-01T13:28:18;99308.63;;;-0.98
71960;BMP280;59832;51.146;14.024;2022-12-01T13:31:01;99316.66;;;-0.96
71960;BMP280;59832;51.146;14.024;2022-12-01T13:33:28;99304.56;;;-1.04
71960;BMP280;59832;51.146;14.024;2022-12-01T13:35:56;99311.06;;;-1.03
71960;BMP280;59832;51.146;14.024;2022-12-01T13:38:58;99307.97;;;-1.10
71960;BMP280;59832;51.146;14.024;2022-12-01T13:41:32;99311.44;;;-1.11
71960;BMP280;59832;51.146;14.024;2022-12-01T13:44:02;99305.78;;;-1.06
71960;BMP280;59832;51.146;14.024;2022-12-01T13:49:02;99314.44;;;-0.92
71960;BMP280;59832;51.146;14.024;2022-12-01T13:52:15;99317.56;;;-1.02
71960;BMP280;59832;51.146;14.024;2022-12-01T13:57:30;99305.00;;;-1.07
71960;BMP280;59832;51.146;14.024;2022-12-01T14:02:25;99306.72;;;-1.13
71960;BMP280;59832;51.146;14.024;2022-12-01T14:04:53;99300.66;;;-1.17
71960;BMP280;59832;51.146;14.024;2022-12-01T14:07:27;99299.13;;;-1.18
71960;BMP280;59832;51.146;14.024;2022-12-01T14:10:37;99290.19;;;-1.14
71960;BMP280;59832;51.146;14.024;2022-12-01T14:13:04;99294.34;;;-1.19
71960;BMP280;59832;51.146;14.024;2022-12-01T14:15:37;99295.19;;;-1.14
71960;BMP280;59832;51.146;14.024;2022-12-01T14:20:45;99301.91;;;-0.97
71960;BMP280;59832;51.146;14.024;2022-12-01T14:23:23;99299.84;;;-1.00
71960;BMP280;59832;51.146;14.024;2022-12-01T14:26:10;99301.53;;;-1.06
71960;BMP280;59832;51.146;14.024;2022-12-01T14:34:11;99302.91;;;-1.15
71960;BMP280;59832;51.146;14.024;2022-12-01T14:37:05;99295.34;;;-1.20
71960;BMP280;59832;51.146;14.024;2022-12-01T14:39:35;99298.72;;;-1.09
71960;BMP280;59832;51.146;14.024;2022-12-01T14:45:17;99305.94;;;-1.13
71960;BMP280;59832;51.146;14.024;2022-12-01T14:47:51;99300.19;;;-1.14
71960;BMP280;59832;51.146;14.024;2022-12-01T14:50:31;99302.97;;;-1.10
71960;BMP280;59832;51.146;14.024;2022-12-01T14:55:54;99290.81;;;-1.23
71960;BMP280;59832;51.146;14.024;2022-12-01T14:58:30;99286.88;;;-1.36
71960;BMP280;59832;51.146;14.024;2022-12-01T15:01:06;99288.19;;;-1.33
71960;BMP280;59832;51.146;14.024;2022-12-01T15:03:37;99286.59;;;-1.23
71960;BMP280;59832;51.146;14.024;2022-12-01T15:06:05;99289.84;;;-1.22
71960;BMP280;59832;51.146;14.024;2022-12-01T15:08:34;99287.81;;;-1.03
71960;BMP280;59832;51.146;14.024;2022-12-01T15:11:23;99281.34;;;-1.21
71960;BMP280;59832;51.146;14.024;2022-12-01T15:13:53;99284.31;;;-1.24
71960;BMP280;59832;51.146;14.024;2022-12-01T15:16:25;99276.22;;;-1.31
71960;BMP280;59832;51.146;14.024;2022-12-01T15:18:53;99270.13;;;-1.19
71960;BMP280;59832;51.146;14.024;2022-12-01T15:21:23;99268.34;;;-1.23
71960;BMP280;59832;51.146;14.024;2022-12-01T15:24:15;99270.47;;;-1.32
71960;BMP280;59832;51.146;14.024;2022-12-01T15:26:47;99273.34;;;-1.23
71960;BMP280;59832;51.146;14.024;2022-12-01T15:29:30;99275.53;;;-1.27
71960;BMP280;59832;51.146;14.024;2022-12-01T15:32:03;99271.22;;;-1.31
71960;BMP280;59832;51.146;14.024;2022-12-01T15:34:37;99270.84;;;-1.23
71960;BMP280;59832;51.146;14.024;2022-12-01T15:37:09;99271.25;;;-1.09
71960;BMP280;59832;51.146;14.024;2022-12-01T15:39:54;99271.19;;;-1.15
71960;BMP280;59832;51.146;14.024;2022-12-01T15:42:42;99273.56;;;-1.25
71960;BMP280;59832;51.146;14.024;2022-12-01T15:45:20;99277.97;;;-1.10
71960;BMP280;59832;51.146;14.024;2022-12-01T15:47:49;99285.97;;;-1.13
71960;BMP280;59832;51.146;14.024;2022-12-01T15:50:30;99269.38;;;-1.19
71960;BMP280;59832;51.146;14.024;2022-12-01T15:53:18;99276.94;;;-1.14
71960;BMP280;59832;51.146;14.024;2022-12-01T15:55:48;99274.31;;;-1.24
71960;BMP280;59832;51.146;14.024;2022-12-01T15:58:25;99266.13;;;-1.20
71960;BMP280;59832;51.146;14.024;2022-12-01T16:01:04;99281.00;;;-1.08
71960;BMP280;59832;51.146;14.024;2022-12-01T16:03:34;99275.97;;;-1.13
71960;BMP280;59832;51.146;14.024;2022-12-01T16:06:11;99283.91;;;-1.16
71960;BMP280;59832;51.146;14.024;2022-12-01T16:08:38;99280.19;;;-1.14
71960;BMP280;59832;51.146;14.024;2022-12-01T16:16:36;99277.56;;;-1.02
71960;BMP280;59832;51.146;14.024;2022-12-01T16:21:50;99284.03;;;-1.06
71960;BMP280;59832;51.146;14.024;2022-12-01T16:26:47;99275.78;;;-1.06
71960;BMP280;59832;51.146;14.024;2022-12-01T16:29:21;99279.41;;;-0.97
71960;BMP280;59832;51.146;14.024;2022-12-01T16:31:50;99278.28;;;-1.06
71960;BMP280;59832;51.146;14.024;2022-12-01T16:34:37;99277.25;;;-0.89
71960;BMP280;59832;51.146;14.024;2022-12-01T16:37:12;99284.00;;;-0.89
71960;BMP280;59832;51.146;14.024;2022-12-01T16:39:39;99281.66;;;-0.74
71960;BMP280;59832;51.146;14.024;2022-12-01T16:42:10;99281.53;;;-0.84
71960;BMP280;59832;51.146;14.024;2022-12-01T16:44:37;99277.94;;;-0.93
71960;BMP280;59832;51.146;14.024;2022-12-01T16:47:11;99282.88;;;-0.77
71960;BMP280;59832;51.146;14.024;2022-12-01T16:49:38;99281.63;;;-0.79
71960;BMP280;59832;51.146;14.024;2022-12-01T16:52:04;99285.72;;;-0.90